Terminal Aerodrome Forecast
Issued by NWS Detroit/Pontiac, MI

Home | Current Version | Previous Version | Text Only | Print | Product List | Glossary On
Versions: 1 2 3 4 5 6 7 8 9 10 11 12 13 14 15 16 17 18 19 20 21 22 23 24 25
908
FTUS43 KDTX 271454 AAA
TAFDTW
TAF AMD
KDTW 271454Z 2715/2818 23007KT P6SM SCT080
     FM280700 01006KT P6SM FEW045 SCT060 BKN150
     FM281500 03008KT P6SM SCT060 BKN100=

USA.gov is the U.S. government's official web portal to all federal, state and local government web resources and services.